Time;durP1;ratioP1;P1;durP2;ratioP2;P2;SDS_P1;SDS_P2;PMS_P1;PMS_P2;Temp;Humidity;BMP_temperature;BMP_pressure;BME280_temperature;BME280_humidity;BME280_pressure;Samples;Min_cycle;Max_cycle;Signal;HPM_P1;HPM_P2
2023/01/12 00:01:29;;;;;;;30.52;14.05;;;2.70;99.90;;;;;;4966053;29;20027;-84
2023/01/12 00:03:55;;;;;;;;;;;2.60;99.90;;;;;;4983156;28;20076;-84
2023/01/12 00:06:22;;;;;;;29.95;13.50;;;2.50;99.90;;;;;;4982719;28;19894;-84
2023/01/12 00:08:49;;;;;;;24.60;11.98;;;2.60;99.90;;;;;;4966684;28;20035;-84
2023/01/12 00:11:16;;;;;;;24.15;11.60;;;2.40;99.90;;;;;;4965834;29;20031;-84
2023/01/12 00:13:43;;;;;;;21.40;10.75;;;2.40;99.90;;;;;;4966508;28;20019;-83
2023/01/12 00:16:37;;;;;;;24.30;11.85;;;2.30;99.90;;;;;;4983351;28;20038;-83
2023/01/12 00:19:17;;;;;;;24.40;11.88;;;2.20;99.90;;;;;;4965950;28;20019;-84
2023/01/12 00:21:51;;;;;;;17.42;10.23;;;1.90;99.90;;;;;;4982004;29;20026;-85
2023/01/12 00:24:19;;;;;;;20.50;11.35;;;2.20;99.90;;;;;;4964811;28;20011;-83
2023/01/12 00:26:47;;;;;;;14.88;8.40;;;2.20;99.90;;;;;;4981626;29;20027;-83
2023/01/12 00:29:14;;;;;;;13.23;7.63;;;2.20;99.90;;;;;;4981479;29;20031;-81
2023/01/12 00:31:40;;;;;;;15.00;8.00;;;2.20;99.90;;;;;;4964992;29;20047;-83
2023/01/12 00:34:06;;;;;;;;;;;2.10;99.90;;;;;;4982275;29;20019;-82
2023/01/12 00:36:32;;;;;;;16.05;9.52;;;2.20;99.90;;;;;;4981592;29;20375;-82
2023/01/12 00:38:57;;;;;;;;;;;2.00;99.90;;;;;;4981859;29;20027;-82
2023/01/12 00:46:52;;;;;;;15.07;9.20;;;2.00;99.90;;;;;;4981191;29;20052;-83
2023/01/12 00:49:18;;;;;;;;;;;1.80;99.90;;;;;;4981578;29;20007;-83
2023/01/12 00:51:44;;;;;;;37.30;17.30;;;1.80;99.90;;;;;;4964530;28;19922;-83
2023/01/12 00:54:10;;;;;;;;;;;1.60;99.90;;;;;;4964648;29;20011;-83
2023/01/12 00:56:37;;;;;;;38.67;17.95;;;1.60;99.90;;;;;;4963999;29;19897;-83
2023/01/12 00:59:04;;;;;;;33.60;16.90;;;1.30;99.90;;;;;;4963989;29;20039;-81
2023/01/12 01:01:31;;;;;;;30.98;15.80;;;1.70;99.90;;;;;;4979967;29;20035;-82
2023/01/12 01:03:57;;;;;;;30.38;15.73;;;1.60;99.90;;;;;;4981299;29;20070;-82
2023/01/12 01:06:23;;;;;;;;;;;1.40;99.90;;;;;;4980719;28;20019;-83
2023/01/12 01:08:49;;;;;;;25.60;13.15;;;1.30;99.90;;;;;;4980822;29;19890;-82
2023/01/12 01:11:15;;;;;;;;;;;1.40;99.90;;;;;;4980763;29;20062;-83
2023/01/12 01:13:44;;;;;;;22.20;10.85;;;1.40;99.90;;;;;;4963585;29;19906;-83
2023/01/12 01:16:16;;;;;;;19.58;10.40;;;1.30;99.90;;;;;;4980409;29;20029;-83
2023/01/12 01:18:42;;;;;;;18.10;9.43;;;1.30;99.90;;;;;;4964447;29;20071;-83
2023/01/12 01:21:09;;;;;;;;;;;1.40;99.90;;;;;;4981287;29;20023;-83
2023/01/12 01:23:36;;;;;;;16.10;8.60;;;1.20;99.90;;;;;;4980872;29;19904;-82
2023/01/12 01:26:10;;;;;;;14.82;8.68;;;1.30;99.90;;;;;;4979996;29;20031;-81
2023/01/12 01:28:36;;;;;;;24.05;10.60;;;1.50;99.90;;;;;;4964232;29;20070;-82
2023/01/12 01:31:03;;;;;;;;;;;1.40;99.90;;;;;;4980913;29;20024;-83
2023/01/12 01:33:30;;;;;;;;;;;1.40;99.90;;;;;;4981042;29;19903;-83
2023/01/12 01:35:56;;;;;;;19.90;9.73;;;1.30;99.90;;;;;;4980338;28;19890;-83
2023/01/12 01:38:22;;;;;;;18.20;9.07;;;1.40;99.90;;;;;;4963431;29;20066;-83
2023/01/12 01:40:49;;;;;;;19.13;9.50;;;1.40;99.90;;;;;;4980189;29;20078;-82
2023/01/12 01:43:17;;;;;;;13.45;6.05;;;1.40;99.90;;;;;;4980184;29;20007;-82
2023/01/12 01:45:46;;;;;;;26.98;12.13;;;1.40;99.90;;;;;;4979907;28;20035;-81
2023/01/12 01:48:17;;;;;;;17.83;7.85;;;1.40;99.90;;;;;;4980096;29;20039;-84
2023/01/12 01:50:48;;;;;;;8.02;3.63;;;1.40;99.90;;;;;;4979406;29;20091;-83
2023/01/12 01:53:22;;;;;;;9.10;3.83;;;1.60;99.90;;;;;;4963473;29;20022;-82
2023/01/12 01:55:51;;;;;;;10.52;4.47;;;1.40;99.90;;;;;;4962843;29;20542;-82
2023/01/12 01:58:23;;;;;;;11.02;4.47;;;1.50;99.90;;;;;;4963204;29;20023;-83
2023/01/12 02:00:51;;;;;;;10.73;5.68;;;1.40;99.90;;;;;;4963624;28;20026;-82
2023/01/12 02:03:17;;;;;;;17.08;8.15;;;1.40;99.90;;;;;;4979778;29;20023;-82
2023/01/12 02:05:47;;;;;;;16.10;7.22;;;1.40;99.90;;;;;;4962810;29;20026;-82
2023/01/12 02:08:21;;;;;;;11.63;5.15;;;1.40;99.90;;;;;;5349038;23;20047;-83
2023/01/12 02:10:47;;;;;;;8.35;4.57;;;1.30;99.90;;;;;;4963756;29;20023;-81
2023/01/12 02:16:22;;;;;;;7.30;3.45;;;1.60;99.90;;;;;;4980489;29;20032;-83
2023/01/12 02:19:04;;;;;;;8.05;3.92;;;1.80;99.90;;;;;;4962588;29;20024;-84
2023/01/12 02:22:07;;;;;;;7.30;3.53;;;1.80;99.90;;;;;;4963190;29;20012;-83
2023/01/12 02:24:45;;;;;;;10.15;5.63;;;1.90;99.90;;;;;;4963449;28;20031;-82
2023/01/12 02:27:49;;;;;;;16.50;8.10;;;1.80;99.90;;;;;;4963073;29;20023;-82
2023/01/12 02:30:51;;;;;;;14.07;7.80;;;1.80;99.90;;;;;;4883701;29;20041;-80
2023/01/12 02:33:37;;;;;;;13.20;7.40;;;1.70;99.90;;;;;;4883762;29;20044;-82
2023/01/12 02:36:09;;;;;;;14.23;7.55;;;1.60;99.90;;;;;;4965528;29;20019;-81
2023/01/12 02:38:49;;;;;;;15.88;6.38;;;1.50;99.90;;;;;;4979158;29;20023;-82
2023/01/12 02:44:50;;;;;;;11.82;6.07;;;1.50;99.90;;;;;;4977953;29;20043;-80
2023/01/12 02:47:28;;;;;;;12.43;7.00;;;1.60;99.90;;;;;;4978131;29;20067;-82
2023/01/12 02:49:59;;;;;;;11.93;6.85;;;1.60;99.90;;;;;;4961564;29;20063;-80
2023/01/12 02:52:28;;;;;;;12.35;5.97;;;1.60;99.90;;;;;;4978844;29;20031;-81
2023/01/12 02:54:55;;;;;;;10.40;5.80;;;1.70;99.90;;;;;;4962711;29;20031;-81
2023/01/12 02:57:23;;;;;;;9.38;4.93;;;1.70;99.90;;;;;;4979238;29;20026;-81
2023/01/12 03:00:00;;;;;;;10.05;5.47;;;1.70;99.90;;;;;;4979200;29;20413;-81
2023/01/12 03:02:26;;;;;;;12.32;4.97;;;1.70;99.90;;;;;;4962275;29;20015;-81
2023/01/12 03:04:53;;;;;;;11.02;5.45;;;1.70;99.90;;;;;;4978723;28;20086;-82
2023/01/12 03:07:34;;;;;;;10.68;6.07;;;1.70;99.90;;;;;;4961441;28;20067;-79
2023/01/12 03:10:25;;;;;;;12.30;6.60;;;1.60;99.90;;;;;;4978345;29;20091;-81
2023/01/12 03:12:53;;;;;;;12.27;6.30;;;1.50;99.90;;;;;;4962575;29;20057;-82
2023/01/12 03:15:22;;;;;;;11.20;6.10;;;1.40;99.90;;;;;;4962229;29;20035;-81
2023/01/12 03:18:07;;;;;;;11.85;6.50;;;1.40;99.90;;;;;;4978742;29;20071;-81
2023/01/12 03:20:37;;;;;;;13.05;6.38;;;1.40;99.90;;;;;;4961334;29;20027;-81
2023/01/12 03:23:13;;;;;;;14.35;6.60;;;1.40;99.90;;;;;;4961541;29;20057;-81
2023/01/12 03:25:42;;;;;;;10.38;5.85;;;1.40;99.90;;;;;;4978119;29;20031;-81
2023/01/12 03:28:12;;;;;;;12.93;6.50;;;1.40;99.90;;;;;;4961922;29;20047;-84
2023/01/12 03:30:41;;;;;;;10.85;5.57;;;1.40;99.90;;;;;;4963421;28;20058;-84
2023/01/12 03:33:08;;;;;;;15.07;6.47;;;1.30;99.90;;;;;;4963923;28;20035;-82
2023/01/12 03:35:55;;;;;;;17.38;9.10;;;1.20;99.90;;;;;;4980395;28;20504;-81
2023/01/12 03:38:50;;;;;;;12.30;6.22;;;1.30;99.90;;;;;;4980509;28;20014;-82
2023/01/12 03:41:38;;;;;;;10.07;5.13;;;1.40;99.90;;;;;;4963821;29;20011;-84
2023/01/12 03:44:11;;;;;;;9.40;5.63;;;1.40;99.90;;;;;;4980293;28;20043;-84
2023/01/12 03:46:44;;;;;;;13.93;6.18;;;1.40;99.90;;;;;;4979149;28;20039;-83
2023/01/12 03:49:23;;;;;;;14.32;5.68;;;1.50;99.90;;;;;;4962751;29;20030;-84
2023/01/12 03:51:51;;;;;;;10.98;6.43;;;1.50;99.90;;;;;;4978821;28;20393;-84
2023/01/12 03:54:19;;;;;;;10.07;5.90;;;1.40;99.90;;;;;;4962411;28;20032;-83
2023/01/12 03:56:47;;;;;;;10.82;6.25;;;1.50;99.90;;;;;;4961802;29;20027;-83
2023/01/12 03:59:13;;;;;;;12.68;7.07;;;1.50;99.90;;;;;;4978284;29;20024;-83
2023/01/12 04:01:42;;;;;;;11.93;7.60;;;1.00;99.90;;;;;;4961366;29;20038;-83
2023/01/12 04:04:08;;;;;;;18.85;9.40;;;1.50;99.90;;;;;;4978413;29;20054;-82
2023/01/12 04:06:33;;;;;;;;;;;1.60;99.90;;;;;;4961662;29;20023;-82
2023/01/12 04:08:59;;;;;;;9.20;5.30;;;1.60;99.90;;;;;;4962062;28;19979;-82
2023/01/12 04:14:09;;;;;;;11.13;6.38;;;1.70;99.90;;;;;;4978521;28;19925;-82
2023/01/12 04:16:35;;;;;;;;;;;1.80;99.90;;;;;;4961960;29;20007;-81
2023/01/12 04:19:01;;;;;;;10.43;6.00;;;1.90;99.90;;;;;;4961279;29;19974;-83
2023/01/12 04:24:11;;;;;;;12.60;6.43;;;1.90;99.90;;;;;;4977843;29;20031;-82
2023/01/12 04:26:37;;;;;;;;;;;1.80;99.90;;;;;;4961658;29;20039;-83
2023/01/12 04:29:04;;;;;;;11.10;5.82;;;1.90;99.90;;;;;;4978401;29;19914;-82
2023/01/12 04:31:30;;;;;;;11.48;6.50;;;1.90;99.90;;;;;;4978599;29;20031;-82
2023/01/12 04:33:55;;;;;;;;;;;2.00;99.90;;;;;;4961382;29;20095;-82
2023/01/12 04:36:21;;;;;;;8.35;5.40;;;2.00;99.90;;;;;;4961377;29;19918;-82
2023/01/12 04:38:47;;;;;;;;;;;2.10;99.90;;;;;;4961819;28;20043;-82
2023/01/12 04:41:13;;;;;;;9.98;5.00;;;2.20;99.90;;;;;;4962512;29;19978;-82
2023/01/12 04:43:38;;;;;;;;;;;2.20;99.90;;;;;;4982062;29;19999;-82
2023/01/12 04:46:09;;;;;;;9.48;5.07;;;2.40;99.90;;;;;;4980949;28;19914;-82
2023/01/12 04:48:37;;;;;;;10.60;5.47;;;2.40;99.90;;;;;;4965122;29;20019;-81
2023/01/12 04:51:04;;;;;;;10.05;5.53;;;2.30;99.90;;;;;;4982072;28;20027;-82
2023/01/12 04:53:30;;;;;;;9.23;5.35;;;2.40;99.90;;;;;;4964762;29;20027;-81
2023/01/12 04:55:56;;;;;;;9.68;5.35;;;2.40;99.90;;;;;;4965034;29;20043;-83
2023/01/12 04:58:22;;;;;;;13.52;6.18;;;2.60;99.90;;;;;;4964549;29;20027;-83
2023/01/12 05:00:48;;;;;;;15.55;6.82;;;2.60;99.90;;;;;;4981507;29;20014;-80
2023/01/12 05:03:14;;;;;;;;;;;2.70;99.90;;;;;;4964814;29;20036;-79
2023/01/12 05:05:41;;;;;;;8.85;5.25;;;2.70;99.90;;;;;;4964541;28;19898;-82
2023/01/12 05:10:55;;;;;;;15.45;9.15;;;2.80;99.90;;;;;;4981331;29;20029;-84
2023/01/12 05:13:22;;;;;;;18.60;10.80;;;2.80;99.90;;;;;;4964240;29;20007;-83
2023/01/12 05:15:47;;;;;;;21.48;12.32;;;2.80;99.90;;;;;;4980973;29;20033;-83
2023/01/12 05:18:14;;;;;;;;;;;2.80;99.90;;;;;;4964496;29;20019;-83
2023/01/12 05:20:40;;;;;;;30.03;17.53;;;2.80;99.90;;;;;;4981065;29;19903;-84
2023/01/12 05:23:06;;;;;;;;;;;2.80;99.90;;;;;;4981708;29;20034;-84
2023/01/12 05:25:32;;;;;;;28.63;16.95;;;2.80;99.90;;;;;;4964169;29;19901;-84
2023/01/12 05:27:58;;;;;;;27.80;14.20;;;2.90;99.90;;;;;;4963650;29;20031;-84
2023/01/12 05:30:25;;;;;;;27.45;15.05;;;2.80;99.90;;;;;;4981380;28;20019;-84
2023/01/12 05:32:51;;;;;;;16.98;8.98;;;2.80;99.90;;;;;;4966049;28;20083;-82
2023/01/12 05:35:17;;;;;;;;;;;3.00;99.90;;;;;;4983077;29;20043;-84
2023/01/12 05:37:43;;;;;;;14.82;7.68;;;3.20;99.90;;;;;;4982296;28;19913;-82
2023/01/12 05:40:09;;;;;;;;;;;3.20;99.90;;;;;;4966397;28;20020;-82
2023/01/12 05:45:19;;;;;;;12.63;6.80;;;3.20;99.90;;;;;;4982673;28;20038;-80
2023/01/12 05:47:45;;;;;;;;;;;3.40;99.90;;;;;;4982753;28;20027;-83
2023/01/12 05:50:11;;;;;;;19.90;10.20;;;3.40;99.90;;;;;;4965621;28;19894;-83
2023/01/12 05:52:36;;;;;;;;;;;3.30;99.90;;;;;;4982656;28;20011;-83
2023/01/12 05:55:03;;;;;;;23.45;13.18;;;3.40;99.90;;;;;;4965848;28;19906;-82
2023/01/12 05:57:30;;;;;;;32.08;17.42;;;3.50;99.90;;;;;;4982246;28;20016;-84
2023/01/12 05:59:56;;;;;;;25.63;14.38;;;3.40;99.90;;;;;;4982361;28;20007;-82
2023/01/12 06:02:21;;;;;;;;;;;3.30;99.90;;;;;;4982560;28;20015;-82
2023/01/12 06:04:47;;;;;;;11.98;5.93;;;3.30;99.90;;;;;;4965706;28;19894;-83
2023/01/12 06:07:15;;;;;;;;;;;3.40;99.90;;;;;;4982280;28;20082;-82
2023/01/12 06:09:41;;;;;;;8.45;4.60;;;3.40;99.90;;;;;;4965097;28;19961;-81
2023/01/12 06:14:55;;;;;;;14.30;6.78;;;3.30;99.90;;;;;;4981126;29;20108;-81
2023/01/12 06:17:21;;;;;;;;;;;3.30;99.90;;;;;;4981512;29;20023;-81
2023/01/12 06:19:49;;;;;;;16.48;7.55;;;3.40;99.90;;;;;;4981206;28;19894;-81
2023/01/12 06:22:18;;;;;;;12.13;6.82;;;3.40;99.90;;;;;;4980697;28;20075;-81
2023/01/12 06:24:47;;;;;;;20.40;10.52;;;3.40;99.90;;;;;;4962664;29;20039;-79
2023/01/12 06:27:15;;;;;;;22.33;12.32;;;3.40;99.90;;;;;;4980063;28;20031;-80
2023/01/12 06:29:48;;;;;;;25.15;12.50;;;3.40;99.90;;;;;;4980885;28;20007;-82
2023/01/12 06:34:49;;;;;;;25.55;14.32;;;3.40;99.90;;;;;;5413946;23;20050;-81
2023/01/12 06:37:15;;;;;;;;;;;3.40;99.90;;;;;;4979061;28;20086;-81
2023/01/12 06:39:41;;;;;;;24.55;14.88;;;3.40;99.90;;;;;;4964551;28;19899;-81
2023/01/12 06:44:51;;;;;;;30.30;17.85;;;3.40;99.90;;;;;;4980672;28;19939;-81
2023/01/12 06:47:17;;;;;;;;;;;3.50;99.90;;;;;;4979950;29;20023;-81
2023/01/12 06:49:59;;;;;;;22.17;13.23;;;3.50;99.90;;;;;;4963325;28;19930;-81
2023/01/12 06:52:40;;;;;;;18.63;10.52;;;3.50;99.90;;;;;;4963417;28;20038;-82
2023/01/12 06:55:09;;;;;;;15.25;8.82;;;3.60;99.90;;;;;;4961642;29;20019;-81
2023/01/12 06:57:35;;;;;;;17.15;10.43;;;3.50;99.90;;;;;;4980123;28;20012;-82
2023/01/12 07:00:12;;;;;;;;;;;3.60;99.90;;;;;;4963703;28;20094;-81
2023/01/12 07:15:38;;;;;;;28.75;16.20;;;3.80;99.90;;;;;;5368780;23;20057;-81
2023/01/12 07:18:04;;;;;;;45.42;22.90;;;3.80;99.90;;;;;;4981026;28;20026;-81
2023/01/12 07:20:31;;;;;;;;;;;3.70;99.90;;;;;;4964251;28;20059;-81
2023/01/12 07:23:13;;;;;;;36.13;18.40;;;3.80;99.90;;;;;;4964421;28;19933;-82
2023/01/12 07:25:39;;;;;;;45.72;25.25;;;3.70;99.90;;;;;;4963825;28;20091;-81
2023/01/12 07:28:07;;;;;;;;;;;3.90;99.90;;;;;;4964079;28;20034;-81
2023/01/12 07:30:42;;;;;;;46.00;26.50;;;4.00;99.90;;;;;;4963272;28;20367;-80
2023/01/12 07:33:14;;;;;;;43.28;23.83;;;4.00;99.90;;;;;;4962942;28;20031;-81
2023/01/12 07:35:43;;;;;;;37.30;19.95;;;4.00;99.90;;;;;;4963905;28;20011;-82
2023/01/12 07:38:09;;;;;;;37.25;21.58;;;4.10;99.90;;;;;;4963272;28;20099;-82
2023/01/12 07:40:40;;;;;;;;;;;4.00;99.90;;;;;;4963537;28;20011;-82
2023/01/12 07:43:17;;;;;;;90.57;39.58;;;4.20;99.90;;;;;;4963858;28;19966;-81
2023/01/12 07:45:48;;;;;;;89.75;46.60;;;4.30;99.90;;;;;;4963660;28;20051;-82
2023/01/12 07:48:15;;;;;;;184.32;86.90;;;4.40;99.90;;;;;;4963793;28;20055;-82
2023/01/12 07:50:41;;;;;;;262.63;116.50;;;4.30;99.90;;;;;;4964092;28;20024;-82
2023/01/12 07:53:09;;;;;;;143.68;63.63;;;4.20;99.90;;;;;;4980323;28;20043;-82
2023/01/12 07:55:38;;;;;;;43.17;22.73;;;4.40;99.90;;;;;;4980285;28;20016;-81
2023/01/12 07:58:08;;;;;;;24.27;14.13;;;4.40;99.90;;;;;;4980476;28;20031;-81
2023/01/12 08:00:37;;;;;;;24.13;12.95;;;4.50;99.90;;;;;;4980380;28;20031;-83
2023/01/12 08:03:10;;;;;;;27.80;15.80;;;4.70;99.90;;;;;;4980266;28;20034;-80
2023/01/12 08:27:45;;;;;;;57.40;30.35;;;5.50;99.90;;;;;;5442389;23;20213;-80
2023/01/12 08:30:14;;;;;;;55.92;30.70;;;5.60;99.90;;;;;;4943915;29;20024;-79
2023/01/12 08:32:41;;;;;;;59.97;33.50;;;5.60;99.90;;;;;;4945415;29;20064;-80
2023/01/12 08:35:07;;;;;;;55.10;33.22;;;5.70;99.90;;;;;;4945097;29;20039;-80
2023/01/12 08:37:34;;;;;;;49.65;28.60;;;5.70;99.90;;;;;;4945469;29;20020;-83
2023/01/12 08:40:01;;;;;;;43.45;25.35;;;5.80;99.90;;;;;;4944439;29;20012;-82
2023/01/12 08:42:30;;;;;;;32.95;19.45;;;6.00;99.90;;;;;;4943931;29;20032;-83
2023/01/12 08:44:56;;;;;;;21.10;14.10;;;6.10;99.90;;;;;;4944838;29;20020;-83
2023/01/12 08:47:29;;;;;;;;;;;6.20;99.90;;;;;;4943899;29;20408;-81
2023/01/12 08:50:06;;;;;;;17.83;11.13;;;6.20;99.90;;;;;;4942157;29;19917;-78
2023/01/12 08:52:34;;;;;;;19.45;10.57;;;6.50;99.90;;;;;;4943003;29;20052;-82
2023/01/12 08:54:59;;;;;;;20.85;10.52;;;6.60;99.90;;;;;;4944837;29;20012;-82
2023/01/12 08:57:25;;;;;;;;;;;6.80;99.90;;;;;;4945394;29;20064;-81
2023/01/12 08:59:51;;;;;;;10.68;6.95;;;6.80;99.90;;;;;;4944682;29;19935;-82
2023/01/12 09:02:17;;;;;;;;;;;7.10;99.90;;;;;;4945256;29;20478;-81
2023/01/12 09:48:22;;;;;;;23.27;12.73;;;7.40;99.90;;;;;;4942441;29;20042;-81
2023/01/12 09:51:10;;;;;;;27.77;16.15;;;7.50;99.90;;;;;;4941325;29;20023;-80
2023/01/12 09:53:38;;;;;;;27.35;17.60;;;7.50;99.90;;;;;;4956902;29;20084;-80
2023/01/12 09:56:14;;;;;;;26.95;17.38;;;7.40;99.90;;;;;;4942069;29;20032;-81
2023/01/12 09:59:06;;;;;;;29.57;15.80;;;7.40;99.90;;;;;;4941979;29;20016;-81
2023/01/12 10:01:37;;;;;;;24.95;14.43;;;7.40;99.90;;;;;;4941900;29;20287;-80
2023/01/12 10:04:03;;;;;;;28.23;16.67;;;7.40;99.90;;;;;;4940491;29;20087;-80
2023/01/12 10:06:31;;;;;;;29.95;14.68;;;7.40;99.90;;;;;;4941355;29;20027;-81
2023/01/12 10:09:00;;;;;;;22.98;14.02;;;7.30;99.90;;;;;;4941352;29;20043;-82
2023/01/12 10:11:38;;;;;;;21.58;12.38;;;7.30;99.90;;;;;;4941564;29;20036;-80
2023/01/12 10:14:23;;;;;;;22.40;12.75;;;7.40;99.90;;;;;;4941902;29;20036;-81
2023/01/12 10:17:22;;;;;;;19.15;13.18;;;7.50;99.90;;;;;;4942863;29;20036;-81
2023/01/12 10:19:56;;;;;;;21.17;13.10;;;7.70;99.90;;;;;;4942418;29;20023;-80
2023/01/12 10:22:38;;;;;;;18.00;11.73;;;7.90;99.90;;;;;;4941949;29;20035;-81
2023/01/12 10:25:31;;;;;;;22.13;13.48;;;7.90;99.90;;;;;;4943051;29;20016;-80
2023/01/12 10:27:59;;;;;;;18.83;11.50;;;8.00;99.90;;;;;;4943267;29;20052;-81
2023/01/12 10:30:39;;;;;;;20.25;12.68;;;7.90;99.90;;;;;;4942960;29;20020;-79
2023/01/12 10:33:13;;;;;;;18.65;12.13;;;7.90;99.90;;;;;;4942871;29;20031;-82
2023/01/12 10:36:01;;;;;;;20.60;12.32;;;8.00;99.90;;;;;;4943024;29;20064;-79
2023/01/12 10:38:33;;;;;;;22.52;13.93;;;8.00;99.90;;;;;;4942703;29;20038;-82
2023/01/12 10:41:02;;;;;;;27.55;17.65;;;7.90;99.90;;;;;;4943068;29;20016;-81
2023/01/12 10:43:32;;;;;;;47.67;30.05;;;7.90;99.90;;;;;;4942819;29;20032;-82
2023/01/12 10:46:12;;;;;;;36.80;23.45;;;7.80;99.90;;;;;;4942719;29;20040;-82
2023/01/12 10:48:42;;;;;;;23.00;15.60;;;7.70;99.90;;;;;;4942898;29;20048;-80
2023/01/12 10:51:21;;;;;;;20.63;13.00;;;7.70;99.90;;;;;;4942354;29;20056;-81
2023/01/12 10:54:01;;;;;;;19.90;12.85;;;7.60;99.90;;;;;;4942322;29;20012;-80
2023/01/12 10:56:29;;;;;;;23.00;14.57;;;7.70;99.90;;;;;;4942918;29;20039;-82
2023/01/12 10:59:00;;;;;;;19.73;11.55;;;7.60;99.90;;;;;;4942495;29;20036;-82
2023/01/12 11:01:49;;;;;;;19.65;11.65;;;7.50;99.90;;;;;;4942133;29;20035;-81
2023/01/12 11:04:20;;;;;;;22.42;13.50;;;7.40;99.90;;;;;;4941344;29;20060;-82
2023/01/12 11:07:00;;;;;;;26.90;16.85;;;7.30;99.90;;;;;;4941200;29;20031;-83
2023/01/12 11:09:28;;;;;;;27.17;16.55;;;7.30;99.90;;;;;;4942907;29;20019;-82
2023/01/12 11:12:04;;;;;;;20.75;12.82;;;7.30;99.90;;;;;;4942203;29;20202;-82
2023/01/12 11:14:36;;;;;;;27.35;16.25;;;7.20;99.90;;;;;;4942047;29;20016;-82
2023/01/12 11:17:29;;;;;;;24.58;14.82;;;7.10;99.90;;;;;;4942171;29;20012;-82
2023/01/12 11:19:58;;;;;;;32.33;20.17;;;7.00;99.90;;;;;;4942291;29;20048;-83
2023/01/12 11:22:30;;;;;;;28.90;18.00;;;7.00;99.90;;;;;;4942542;29;20035;-83
2023/01/12 11:25:01;;;;;;;28.83;17.77;;;7.00;99.90;;;;;;4942198;29;20032;-80
2023/01/12 11:27:31;;;;;;;22.45;13.15;;;7.00;99.90;;;;;;4941985;29;20144;-82
2023/01/12 11:29:59;;;;;;;18.48;13.15;;;7.20;99.90;;;;;;4942223;29;20019;-80
2023/01/12 11:32:31;;;;;;;23.55;12.95;;;7.10;99.90;;;;;;4942285;29;20039;-82
2023/01/12 11:35:26;;;;;;;22.23;13.90;;;7.10;99.90;;;;;;4942494;29;20020;-81
2023/01/12 11:37:56;;;;;;;22.05;13.63;;;7.30;99.90;;;;;;4941982;29;20032;-82
2023/01/12 11:40:34;;;;;;;21.67;12.13;;;7.20;99.90;;;;;;4941827;29;20012;-81
2023/01/12 11:43:48;;;;;;;23.27;14.30;;;7.30;99.90;;;;;;4941562;29;20020;-83
2023/01/12 11:46:41;;;;;;;25.35;13.82;;;7.50;99.90;;;;;;4941381;29;20052;-82
2023/01/12 11:49:11;;;;;;;23.90;14.27;;;7.50;99.90;;;;;;4941298;29;20032;-81
2023/01/12 11:51:38;;;;;;;22.08;13.80;;;7.70;99.90;;;;;;4947268;29;20024;-82
2023/01/12 11:54:13;;;;;;;23.95;15.00;;;7.70;99.90;;;;;;4948121;29;20016;-81
2023/01/12 11:56:57;;;;;;;26.30;15.93;;;7.70;99.90;;;;;;4947811;29;20084;-81
2023/01/12 11:59:40;;;;;;;26.95;15.52;;;7.60;99.90;;;;;;4947059;29;20036;-79
2023/01/12 12:02:18;;;;;;;30.33;18.38;;;7.60;99.90;;;;;;4944615;29;20051;-81
2023/01/12 12:04:57;;;;;;;34.13;16.90;;;7.60;99.90;;;;;;4945403;29;20056;-79
2023/01/12 12:07:42;;;;;;;20.85;13.65;;;7.50;99.90;;;;;;4946446;29;20051;-82
2023/01/12 12:10:39;;;;;;;25.50;14.50;;;7.60;99.90;;;;;;4947057;29;20012;-79
2023/01/12 12:13:24;;;;;;;24.98;15.73;;;7.50;99.90;;;;;;4947673;29;20060;-81
2023/01/12 12:16:07;;;;;;;26.80;16.52;;;7.40;99.90;;;;;;4945496;29;20529;-80
2023/01/12 12:18:59;;;;;;;21.45;13.38;;;7.60;99.90;;;;;;4947187;29;20028;-81
2023/01/12 12:21:48;;;;;;;22.67;13.70;;;7.50;99.90;;;;;;4947127;29;20024;-81
2023/01/12 12:24:23;;;;;;;25.17;14.02;;;7.50;99.90;;;;;;4947223;29;20039;-79
2023/01/12 12:27:25;;;;;;;21.33;14.55;;;7.50;99.90;;;;;;4947855;29;20055;-84
2023/01/12 12:30:20;;;;;;;24.40;15.25;;;7.40;99.90;;;;;;4946474;29;20039;-78
2023/01/12 12:33:02;;;;;;;28.42;16.52;;;7.20;99.90;;;;;;4947802;29;20047;-83
2023/01/12 12:35:40;;;;;;;26.00;15.32;;;7.30;99.90;;;;;;4946815;29;20042;-83
2023/01/12 12:38:37;;;;;;;27.65;16.13;;;7.30;99.90;;;;;;4948177;29;20020;-80
2023/01/12 12:47:25;;;;;;;24.88;16.15;;;7.40;99.90;;;;;;4945753;29;20051;-83
2023/01/12 12:49:55;;;;;;;24.60;15.52;;;7.40;99.90;;;;;;4947360;29;20043;-82
2023/01/12 12:52:23;;;;;;;24.85;16.35;;;7.60;99.90;;;;;;4947630;29;20051;-82
2023/01/12 12:54:51;;;;;;;24.63;14.23;;;7.50;99.90;;;;;;4946678;29;20036;-81
2023/01/12 12:57:17;;;;;;;24.20;15.32;;;7.60;99.90;;;;;;4946765;29;20023;-83
2023/01/12 12:59:56;;;;;;;29.02;17.20;;;7.70;99.90;;;;;;4947443;29;20020;-82
2023/01/12 13:12:35;;;;;;;20.50;13.77;;;7.80;99.90;;;;;;4959751;29;20063;-81
2023/01/12 13:15:23;;;;;;;21.77;13.23;;;7.90;99.90;;;;;;4945003;29;20023;-80
2023/01/12 13:17:51;;;;;;;25.45;12.68;;;7.70;99.90;;;;;;4961309;29;20011;-81
2023/01/12 13:20:17;;;;;;;20.38;11.60;;;7.70;99.90;;;;;;4944518;29;20024;-81
2023/01/12 13:22:47;;;;;;;;;;;7.70;99.90;;;;;;4963553;29;20035;-82
2023/01/12 13:25:18;;;;;;;19.13;10.80;;;7.60;99.90;;;;;;4962974;29;19902;-81
2023/01/12 13:27:59;;;;;;;18.83;11.68;;;7.60;99.90;;;;;;4946865;29;20109;-82
2023/01/12 13:30:28;;;;;;;22.67;12.13;;;7.60;99.90;;;;;;4962724;29;20027;-81
2023/01/12 13:33:00;;;;;;;70.07;34.13;;;7.60;99.90;;;;;;4946438;29;20038;-82
2023/01/12 13:35:37;;;;;;;79.13;39.90;;;7.50;99.90;;;;;;4962924;29;20012;-81
2023/01/12 13:38:47;;;;;;;80.85;46.45;;;7.60;99.90;;;;;;4962835;29;20027;-81
2023/01/12 13:41:13;;;;;;;40.28;25.55;;;7.40;99.90;;;;;;4962112;29;20031;-82
2023/01/12 13:43:53;;;;;;;;;;;7.50;99.90;;;;;;4947032;29;20031;-81
2023/01/12 13:46:48;;;;;;;28.80;17.83;;;7.50;99.90;;;;;;4962869;29;19962;-82
2023/01/12 13:49:42;;;;;;;38.10;22.88;;;7.50;99.90;;;;;;4945905;29;20034;-80
2023/01/12 13:52:20;;;;;;;31.55;17.23;;;7.40;99.90;;;;;;4961675;29;20024;-81
2023/01/12 13:54:50;;;;;;;29.67;17.38;;;7.40;99.90;;;;;;4962706;29;20032;-82
2023/01/12 13:57:22;;;;;;;30.38;19.20;;;7.40;99.90;;;;;;4946256;29;20060;-82
2023/01/12 14:00:03;;;;;;;33.05;21.50;;;7.30;99.90;;;;;;4945888;29;20023;-82
2023/01/12 14:02:32;;;;;;;36.63;21.50;;;7.40;99.90;;;;;;4962372;29;20011;-83
2023/01/12 14:05:23;;;;;;;32.33;19.25;;;7.20;99.90;;;;;;4946260;29;20103;-82
2023/01/12 14:07:57;;;;;;;19.48;13.05;;;7.40;99.90;;;;;;4962432;29;20034;-83
2023/01/12 14:10:49;;;;;;;21.73;12.00;;;7.30;99.90;;;;;;4962293;29;20064;-81
2023/01/12 14:13:32;;;;;;;24.60;13.18;;;7.40;99.90;;;;;;4945054;29;20051;-82
2023/01/12 14:18:57;;;;;;;26.02;16.83;;;7.40;99.90;;;;;;4962273;29;20034;-81
2023/01/12 14:21:23;;;;;;;;;;;7.40;99.90;;;;;;4945889;29;20016;-83
2023/01/12 14:23:49;;;;;;;28.00;17.30;;;7.30;99.90;;;;;;4945359;29;19902;-82
2023/01/12 14:26:21;;;;;;;34.40;21.52;;;7.20;99.90;;;;;;4945498;29;20036;-82
2023/01/12 14:28:51;;;;;;;32.67;19.35;;;7.20;99.90;;;;;;4961549;29;20035;-81
2023/01/12 14:31:25;;;;;;;28.45;17.30;;;7.10;99.90;;;;;;4961810;29;20044;-81
2023/01/12 14:33:56;;;;;;;36.53;17.58;;;7.10;99.90;;;;;;4961291;29;20012;-81
2023/01/12 14:36:30;;;;;;;34.53;18.08;;;7.00;99.90;;;;;;4961927;29;20015;-82
2023/01/12 14:38:58;;;;;;;30.98;18.17;;;6.90;99.90;;;;;;4944884;29;20027;-82
2023/01/12 14:47:21;;;;;;;35.33;19.52;;;6.50;99.90;;;;;;4961044;29;20034;-82
2023/01/12 14:49:47;;;;;;;35.08;20.55;;;6.60;99.90;;;;;;4961444;29;20048;-82
2023/01/12 14:52:35;;;;;;;31.13;20.08;;;6.40;99.90;;;;;;4944672;29;20031;-84
2023/01/12 14:55:25;;;;;;;39.65;23.50;;;6.50;99.90;;;;;;4928104;29;20024;-83
2023/01/12 14:58:04;;;;;;;28.25;19.55;;;6.30;99.90;;;;;;4961846;29;20016;-80
2023/01/12 15:00:35;;;;;;;36.67;21.38;;;6.40;99.90;;;;;;4945608;29;20024;-84
2023/01/12 15:03:06;;;;;;;44.17;28.23;;;6.30;99.90;;;;;;4960956;29;20016;-79
2023/01/12 15:05:35;;;;;;;47.33;24.27;;;6.10;99.90;;;;;;4938441;29;20101;-78
2023/01/12 15:08:05;;;;;;;38.10;21.63;;;6.10;99.90;;;;;;4929238;29;20043;-77
2023/01/12 15:10:34;;;;;;;40.88;23.10;;;6.20;99.90;;;;;;4936499;29;20079;-80
2023/01/12 15:13:31;;;;;;;39.55;24.27;;;6.10;99.90;;;;;;4940815;29;20032;-82
2023/01/12 15:27:12;;;;;;;48.72;28.60;;;5.60;99.90;;;;;;4960542;29;20043;-78
2023/01/12 15:29:37;;;;;;;52.47;28.33;;;5.60;99.90;;;;;;4931157;29;20046;-80
2023/01/12 15:32:04;;;;;;;;;;;5.50;99.90;;;;;;4961956;29;20178;-80
2023/01/12 15:34:31;;;;;;;53.17;30.08;;;5.50;99.90;;;;;;4939119;29;19901;-78
2023/01/12 15:36:57;;;;;;;54.92;33.45;;;5.40;99.90;;;;;;4940958;29;20022;-79
2023/01/12 15:39:22;;;;;;;;;;;5.30;99.90;;;;;;4961270;29;20019;-82
2023/01/12 15:44:33;;;;;;;67.40;33.55;;;5.20;99.90;;;;;;4959923;29;20043;-79
2023/01/12 15:46:58;;;;;;;;;;;5.20;99.90;;;;;;4934343;29;20099;-80
2023/01/12 15:49:24;;;;;;;55.67;32.13;;;5.00;99.90;;;;;;4942223;29;19898;-80